createdAt,value
2023-01-03T00:01:32.001Z,12.07
2023-01-03T00:05:13.914Z,13.47
2023-01-03T00:08:57.457Z,13.67
2023-01-03T00:12:39.510Z,12.63
2023-01-03T00:16:21.632Z,12.73
2023-01-03T00:20:03.804Z,11.23
2023-01-03T00:23:45.916Z,62.30
2023-01-03T00:27:27.917Z,15.67
2023-01-03T00:31:12.721Z,13.33
2023-01-03T00:34:56.845Z,12.93
2023-01-03T00:38:43.248Z,12.00
2023-01-03T00:42:25.222Z,12.73
2023-01-03T00:46:08.362Z,11.43
2023-01-03T00:49:50.366Z,11.43
2023-01-03T00:53:32.329Z,11.23
2023-01-03T00:57:14.421Z,11.67
2023-01-03T01:00:56.558Z,11.43
2023-01-03T01:04:38.583Z,10.70
2023-01-03T01:08:20.525Z,11.20
2023-01-03T01:12:05.266Z,11.10
2023-01-03T01:15:47.234Z,10.23
2023-01-03T01:19:32.537Z,10.93
2023-01-03T01:23:14.528Z,11.67
2023-01-03T01:26:56.759Z,11.63
2023-01-03T01:30:39.130Z,9.97
2023-01-03T01:34:21.358Z,10.77
2023-01-03T01:38:03.350Z,10.80
2023-01-03T01:42:05.287Z,11.30
2023-01-03T01:45:48.427Z,10.63
2023-01-03T01:49:30.819Z,10.93
2023-01-03T01:53:22.654Z,11.33
2023-01-03T01:57:04.619Z,10.77
2023-01-03T02:00:47.788Z,10.17
2023-01-03T02:04:34.153Z,10.17
2023-01-03T02:08:16.504Z,10.48
2023-01-03T02:12:25.760Z,10.50
2023-01-03T02:16:07.742Z,9.53
2023-01-03T02:19:58.947Z,10.80
2023-01-03T02:24:14.756Z,10.27
2023-01-03T02:28:14.960Z,10.53
2023-01-03T02:32:12.059Z,9.87
2023-01-03T02:36:11.759Z,10.87
2023-01-03T02:40:37.178Z,10.13
2023-01-03T02:44:23.684Z,9.37
2023-01-03T02:48:23.242Z,9.13
2023-01-03T02:52:10.628Z,8.67
2023-01-03T02:55:55.682Z,9.13
2023-01-03T02:59:52.401Z,8.93
2023-01-03T03:03:39.001Z,8.93
2023-01-03T03:11:26.515Z,8.60
2023-01-03T03:15:12.175Z,9.03
2023-01-03T03:18:59.111Z,9.37
2023-01-03T03:23:01.692Z,9.03
2023-01-03T03:26:45.087Z,9.03
2023-01-03T03:30:30.707Z,8.80
2023-01-03T03:34:15.579Z,8.97
2023-01-03T03:38:00.900Z,8.43
2023-01-03T03:42:07.766Z,7.90
2023-01-03T03:46:23.700Z,8.38
2023-01-03T03:50:24.933Z,8.40
2023-01-03T03:54:11.331Z,8.83
2023-01-03T03:58:00.131Z,9.27
2023-01-03T04:01:43.378Z,8.93
2023-01-03T04:05:29.600Z,9.50
2023-01-03T04:09:11.944Z,8.75
2023-01-03T04:12:53.979Z,7.50
2023-01-03T04:16:37.750Z,7.60
2023-01-03T04:20:20.047Z,4.70
2023-01-03T04:24:02.072Z,6.10
2023-01-03T04:27:43.971Z,4.77
2023-01-03T04:31:26.038Z,3.50
2023-01-03T04:35:08.591Z,3.00
2023-01-03T04:38:50.520Z,3.20
2023-01-03T04:42:50.955Z,3.20
2023-01-03T04:46:35.703Z,2.80
2023-01-03T04:50:17.653Z,2.97
2023-01-03T04:54:00.230Z,2.70
2023-01-03T04:57:42.231Z,2.43
2023-01-03T05:01:24.509Z,2.67
2023-01-03T05:05:07.484Z,2.63
2023-01-03T05:08:50.958Z,3.47
2023-01-03T05:12:33.045Z,2.53
2023-01-03T05:16:15.723Z,2.17
2023-01-03T05:20:16.089Z,2.00
2023-01-03T05:24:17.049Z,2.00
2023-01-03T05:28:00.689Z,2.50
2023-01-03T05:31:42.755Z,1.97
2023-01-03T05:35:24.866Z,2.07
2023-01-03T05:39:08.229Z,2.10
2023-01-03T05:42:50.413Z,2.27
2023-01-03T05:46:33.273Z,1.97
2023-01-03T05:50:15.453Z,2.40
2023-01-03T05:53:57.995Z,2.23
2023-01-03T05:57:40.161Z,2.43
2023-01-03T06:01:22.254Z,2.67
2023-01-03T06:05:05.122Z,2.10
2023-01-03T06:08:47.127Z,2.83
2023-01-03T06:12:29.727Z,2.47
2023-01-03T06:16:35.869Z,3.13
2023-01-03T06:20:20.370Z,2.30
2023-01-03T06:24:02.459Z,3.00
2023-01-03T06:27:44.484Z,3.10
2023-01-03T06:31:27.115Z,2.07
2023-01-03T06:35:09.637Z,2.83
2023-01-03T06:38:52.270Z,2.63
2023-01-03T06:42:45.456Z,4.77
2023-01-03T06:46:46.136Z,2.70
2023-01-03T06:50:46.942Z,2.47
2023-01-03T06:54:34.925Z,2.40
2023-01-03T06:58:17.094Z,3.30
2023-01-03T07:01:59.181Z,3.23
2023-01-03T07:05:41.399Z,2.90
2023-01-03T07:09:27.992Z,2.23
2023-01-03T07:13:28.672Z,2.93
2023-01-03T07:17:10.748Z,2.43
2023-01-03T07:20:53.101Z,3.27
2023-01-03T07:24:35.133Z,3.10
2023-01-03T07:28:17.532Z,3.00
2023-01-03T07:31:59.931Z,3.53
2023-01-03T07:35:42.087Z,3.20
2023-01-03T07:39:26.670Z,3.50
2023-01-03T07:43:30.610Z,2.87
2023-01-03T07:47:16.693Z,3.40
2023-01-03T07:50:59.540Z,3.03
2023-01-03T07:54:41.705Z,3.57
2023-01-03T07:58:23.817Z,3.53
2023-01-03T08:02:06.462Z,3.37
2023-01-03T08:05:48.684Z,3.33
2023-01-03T08:09:50.112Z,2.90
2023-01-03T08:13:32.340Z,2.33
2023-01-03T08:17:17.219Z,2.90
2023-01-03T08:21:00.352Z,2.67
2023-01-03T08:24:42.656Z,2.70
2023-01-03T08:28:25.007Z,2.73
2023-01-03T08:32:07.474Z,2.40
2023-01-03T08:36:03.747Z,2.10
2023-01-03T08:40:00.119Z,2.10
2023-01-03T08:43:45.176Z,2.58
2023-01-03T08:47:28.540Z,2.63
2023-01-03T08:51:11.733Z,2.93
2023-01-03T08:54:53.752Z,3.03
2023-01-03T08:58:37.266Z,2.70
2023-01-03T09:02:19.781Z,2.53
2023-01-03T09:06:03.500Z,2.40
2023-01-03T09:09:45.572Z,2.63
2023-01-03T09:13:27.784Z,2.37
2023-01-03T09:17:13.413Z,2.20
2023-01-03T09:20:55.786Z,2.75
2023-01-03T09:24:42.346Z,4.63
2023-01-03T09:28:27.186Z,2.63
2023-01-03T09:36:11.677Z,3.97
2023-01-03T09:39:54.911Z,1.97
2023-01-03T09:43:41.491Z,2.50
2023-01-03T09:47:26.860Z,2.93
2023-01-03T09:51:36.595Z,2.00
2023-01-03T09:56:13.590Z,2.63
2023-01-03T10:00:14.560Z,2.90
2023-01-03T10:04:35.058Z,3.33
2023-01-03T10:13:01.772Z,4.37
2023-01-03T10:17:23.002Z,3.40
2023-01-03T10:22:12.123Z,2.97
2023-01-03T10:25:57.276Z,3.00
2023-01-03T10:33:55.090Z,2.00
2023-01-03T10:42:08.402Z,2.63
2023-01-03T10:50:49.410Z,1.60
2023-01-03T10:55:00.818Z,1.50
2023-01-03T10:58:47.558Z,1.37
2023-01-03T11:07:38.666Z,1.77
2023-01-03T11:11:45.099Z,2.50
2023-01-03T11:15:41.406Z,2.22
2023-01-03T11:19:33.440Z,2.57
2023-01-03T11:23:44.082Z,2.70
2023-01-03T11:28:15.591Z,2.53
2023-01-03T11:32:28.030Z,2.97
2023-01-03T11:36:48.861Z,3.70
2023-01-03T11:45:55.785Z,3.10
2023-01-03T11:54:27.052Z,3.72
2023-01-03T11:58:22.989Z,4.50
2023-01-03T12:02:40.864Z,4.55
2023-01-03T12:06:39.001Z,3.90
2023-01-03T12:10:52.541Z,4.90
2023-01-03T12:14:44.023Z,5.00
2023-01-03T12:19:20.213Z,4.97
2023-01-03T12:23:24.631Z,5.27
2023-01-03T12:27:31.343Z,7.73
2023-01-03T12:31:32.603Z,5.45
2023-01-03T12:35:41.508Z,6.87
2023-01-03T12:39:55.520Z,7.53
2023-01-03T12:43:55.825Z,7.33
2023-01-03T12:47:49.273Z,7.10
2023-01-03T12:51:35.429Z,7.07
2023-01-03T12:55:25.097Z,5.60
2023-01-03T12:59:40.638Z,6.03
2023-01-03T13:03:40.783Z,5.87
2023-01-03T13:07:30.738Z,6.27
2023-01-03T13:11:38.334Z,6.93
2023-01-03T13:15:37.767Z,6.80
2023-01-03T13:19:24.210Z,5.30
2023-01-03T13:23:36.369Z,5.60
2023-01-03T13:27:18.814Z,4.73
2023-01-03T13:31:19.055Z,5.00
2023-01-03T13:35:01.165Z,5.83
2023-01-03T13:38:47.574Z,5.47
2023-01-03T13:46:25.071Z,5.20
2023-01-03T13:50:19.271Z,5.03
2023-01-03T13:54:13.590Z,3.93
2023-01-03T13:57:57.227Z,4.63
2023-01-03T14:01:57.937Z,4.20
2023-01-03T14:05:56.560Z,5.00
2023-01-03T14:10:06.944Z,4.00
2023-01-03T14:13:56.409Z,3.33
2023-01-03T14:17:41.707Z,3.93
2023-01-03T14:21:28.171Z,3.53
2023-01-03T14:25:42.801Z,3.23
2023-01-03T14:29:27.132Z,3.37
2023-01-03T14:33:23.432Z,3.60
2023-01-03T14:37:20.539Z,2.83
2023-01-03T14:41:03.674Z,2.50
2023-01-03T14:45:22.941Z,3.13
2023-01-03T14:49:25.709Z,3.10
2023-01-03T14:53:16.995Z,2.37
2023-01-03T14:57:02.525Z,1.97
2023-01-03T15:00:54.528Z,2.20
2023-01-03T15:08:49.493Z,2.10
2023-01-03T15:12:36.258Z,2.47
2023-01-03T15:16:37.102Z,1.67
2023-01-03T15:20:27.579Z,1.70
2023-01-03T15:24:20.895Z,1.73
2023-01-03T15:28:32.919Z,1.60
2023-01-03T15:32:19.826Z,2.07
2023-01-03T15:36:20.008Z,2.13
2023-01-03T15:40:07.992Z,1.60
2023-01-03T15:43:58.181Z,2.20
2023-01-03T15:47:44.987Z,2.73
2023-01-03T15:51:39.062Z,2.23
2023-01-03T15:55:24.815Z,2.53
2023-01-03T15:59:25.417Z,2.03
2023-01-03T16:03:34.301Z,1.80
2023-01-03T16:07:25.373Z,1.67
2023-01-03T16:11:31.389Z,1.57
2023-01-03T16:19:45.641Z,1.90
2023-01-03T16:23:59.899Z,1.80
2023-01-03T16:31:49.174Z,1.92
2023-01-03T16:35:37.236Z,2.37
2023-01-03T16:39:30.631Z,2.40
2023-01-03T16:43:14.000Z,2.67
2023-01-03T16:51:22.415Z,2.00
2023-01-03T16:55:41.955Z,2.50
2023-01-03T17:03:50.168Z,2.70
2023-01-03T17:07:35.865Z,2.07
2023-01-03T17:11:40.755Z,2.80
2023-01-03T17:15:30.744Z,3.37
2023-01-03T17:23:05.275Z,2.93
2023-01-03T17:34:58.076Z,2.20
2023-01-03T17:39:09.648Z,2.53
2023-01-03T17:47:23.422Z,3.03
2023-01-03T17:51:16.563Z,1.97
2023-01-03T17:55:32.475Z,1.80
2023-01-03T17:59:26.546Z,2.30
2023-01-03T18:03:13.467Z,2.10
2023-01-03T18:11:04.047Z,2.47
2023-01-03T18:14:49.071Z,3.13
2023-01-03T18:18:33.238Z,1.80
2023-01-03T18:22:17.757Z,2.60
2023-01-03T18:26:16.261Z,2.57
2023-01-03T18:30:04.638Z,2.80
2023-01-03T18:33:53.355Z,2.30
2023-01-03T18:41:34.869Z,2.90
2023-01-03T18:45:18.105Z,2.93
2023-01-03T18:49:02.006Z,2.77
2023-01-03T18:53:00.989Z,3.50
2023-01-03T19:00:56.316Z,2.43
2023-01-03T19:04:42.949Z,3.30
2023-01-03T19:08:38.608Z,3.00
2023-01-03T19:12:24.254Z,2.87
2023-01-03T19:16:13.944Z,2.80
2023-01-03T19:20:06.283Z,2.43
2023-01-03T19:24:01.237Z,2.93
2023-01-03T19:27:50.332Z,3.27
2023-01-03T19:31:47.160Z,3.60
2023-01-03T19:35:34.125Z,2.80
2023-01-03T19:39:20.952Z,2.40
2023-01-03T19:43:07.906Z,2.40
2023-01-03T19:46:51.291Z,2.63
2023-01-03T19:50:35.422Z,2.80
2023-01-03T19:54:17.904Z,3.30
2023-01-03T19:58:06.812Z,2.40
2023-01-03T20:02:22.653Z,2.60
2023-01-03T20:05:51.418Z,2.20
2023-01-03T20:09:34.116Z,2.20
2023-01-03T20:13:19.914Z,2.40
2023-01-03T20:17:01.957Z,2.65
2023-01-03T20:20:44.782Z,2.30
2023-01-03T20:24:33.568Z,2.70
2023-01-03T20:28:29.541Z,2.13
2023-01-03T20:32:11.907Z,2.33
2023-01-03T20:36:14.144Z,2.70
2023-01-03T20:40:01.813Z,4.13
2023-01-03T20:43:44.734Z,3.60
2023-01-03T20:47:26.736Z,3.50
2023-01-03T20:51:12.407Z,3.67
2023-01-03T20:54:57.831Z,4.28
2023-01-03T20:58:40.762Z,4.10
2023-01-03T21:02:23.033Z,3.80
2023-01-03T21:06:18.194Z,3.73
2023-01-03T21:10:00.178Z,3.23
2023-01-03T21:13:42.490Z,3.80
2023-01-03T21:17:24.411Z,3.70
2023-01-03T21:21:08.621Z,4.27
2023-01-03T21:24:57.242Z,3.93
2023-01-03T21:28:39.761Z,5.37
2023-01-03T21:32:21.883Z,7.50
2023-01-03T21:36:04.186Z,4.60
2023-01-03T21:39:46.561Z,4.90
2023-01-03T21:43:28.570Z,4.30
2023-01-03T21:47:11.109Z,4.67
2023-01-03T21:50:53.245Z,4.57
2023-01-03T21:54:38.785Z,5.10
2023-01-03T21:58:22.821Z,5.82
2023-01-03T22:02:26.017Z,5.57
2023-01-03T22:06:14.763Z,6.37
2023-01-03T22:10:15.868Z,6.10
2023-01-03T22:14:01.763Z,5.47
2023-01-03T22:17:47.413Z,5.10
2023-01-03T22:21:31.489Z,5.05
2023-01-03T22:25:22.531Z,3.53
2023-01-03T22:29:06.443Z,4.90
2023-01-03T22:32:48.631Z,4.67
2023-01-03T22:36:31.727Z,3.90
2023-01-03T22:40:15.741Z,3.83
2023-01-03T22:43:59.592Z,3.83
2023-01-03T22:47:43.747Z,4.83
2023-01-03T22:51:25.848Z,3.77
2023-01-03T22:55:08.466Z,3.70
2023-01-03T22:58:50.710Z,3.60
2023-01-03T23:02:41.417Z,4.20
2023-01-03T23:06:25.498Z,3.10
2023-01-03T23:10:08.335Z,3.90
2023-01-03T23:13:53.576Z,4.03
2023-01-03T23:17:54.075Z,3.70
2023-01-03T23:21:36.211Z,3.83
2023-01-03T23:25:18.416Z,3.53
2023-01-03T23:29:01.480Z,3.70
2023-01-03T23:32:43.478Z,3.77
2023-01-03T23:36:26.492Z,3.90
2023-01-03T23:40:10.620Z,3.60
2023-01-03T23:43:53.570Z,2.83
2023-01-03T23:47:35.497Z,3.70
2023-01-03T23:51:19.939Z,3.93
2023-01-03T23:55:06.962Z,2.93
2023-01-03T23:58:55.292Z,3.17
